Clover, Virginia
Current Conditions -  °F | °C
As of 12:35 AM on Thursday 18 Dec 2014 (Local Time) from KW78 Reporting Station
Clear Clear  
Wind Chill: 34°   Ceiling: Unl
Heat Index: 39°   Visibility: 10mi
Dew Point: 26°   Wind: 7mph
Humidity: 60%   Direction: 320°NW
Pressure: 30.09"   Gusts: NA
Location:  36.83°N, 78.73°W
Report Text: KW78 180535Z AUTO 32006KT 10SM CLR 04/M03 A3009 RMK AO1 T00391032
Loading
Personal Weather Stations






























Interactive Weather Map New forecast layout! Learn more

10-Day Weather Forecast

Advertisements
Track Severe Weather on mobile